Time;durP1;ratioP1;P1;durP2;ratioP2;P2;SDS_P1;SDS_P2;PMS_P1;PMS_P2;Temp;Humidity;BMP_temperature;BMP_pressure;BME280_temperature;BME280_humidity;BME280_pressure;Samples;Min_cycle;Max_cycle;Signal;HPM_P1;HPM_P2
2023/06/15 00:02:21;;;;;;;4.28;3.30;;;20.80;52.20;;;;;;5114463;28;20028;-75
2023/06/15 00:04:47;;;;;;;3.70;2.90;;;20.80;52.40;;;;;;5113533;28;20044;-75
2023/06/15 00:07:12;;;;;;;4.43;3.47;;;20.60;52.50;;;;;;5113542;28;20060;-74
2023/06/15 00:09:38;;;;;;;6.30;3.78;;;20.50;52.70;;;;;;5113390;28;20032;-75
2023/06/15 00:12:04;;;;;;;3.75;3.28;;;20.60;52.80;;;;;;5114315;28;20024;-75
2023/06/15 00:14:30;;;;;;;4.78;3.40;;;20.50;52.90;;;;;;5114273;28;20107;-75
2023/06/15 00:16:57;;;;;;;4.53;3.42;;;20.50;53.10;;;;;;5114199;28;20058;-75
2023/06/15 00:19:23;;;;;;;4.38;3.22;;;20.40;53.20;;;;;;5114200;28;20032;-75
2023/06/15 00:21:49;;;;;;;4.05;3.60;;;20.40;53.30;;;;;;5113267;28;20024;-75
2023/06/15 00:24:15;;;;;;;5.45;3.65;;;20.30;53.50;;;;;;5113178;28;20028;-75
2023/06/15 00:26:42;;;;;;;4.95;3.28;;;20.20;53.90;;;;;;5112891;28;20032;-75
2023/06/15 00:29:07;;;;;;;7.30;3.53;;;20.10;54.50;;;;;;5114028;28;20024;-75
2023/06/15 00:31:34;;;;;;;4.38;3.95;;;19.90;55.20;;;;;;5096174;28;20036;-74
2023/06/15 00:34:00;;;;;;;4.57;3.50;;;19.90;55.50;;;;;;5112945;28;20031;-75
2023/06/15 00:36:26;;;;;;;4.50;3.58;;;19.90;55.50;;;;;;5113025;28;20055;-75
2023/06/15 00:38:52;;;;;;;4.15;3.67;;;20.00;55.40;;;;;;5113684;28;20056;-75
2023/06/15 00:41:17;;;;;;;6.15;3.55;;;20.00;56.30;;;;;;5112815;28;20024;-75
2023/06/15 00:43:43;;;;;;;6.50;3.60;;;20.00;55.30;;;;;;5095904;28;20028;-75
2023/06/15 00:46:10;;;;;;;4.88;3.75;;;20.00;56.50;;;;;;5113813;28;20027;-75
2023/06/15 00:48:36;;;;;;;5.35;3.75;;;20.10;55.60;;;;;;5112668;28;20024;-75
2023/06/15 00:51:03;;;;;;;4.78;3.42;;;20.10;55.30;;;;;;5113690;28;20035;-75
2023/06/15 00:53:29;;;;;;;4.00;3.60;;;20.10;55.70;;;;;;5112797;28;20028;-75
2023/06/15 00:55:55;;;;;;;3.92;3.50;;;20.10;55.60;;;;;;5113667;28;20028;-75
2023/06/15 00:58:21;;;;;;;5.10;3.60;;;20.20;56.00;;;;;;5113574;28;20520;-75
2023/06/15 01:00:49;;;;;;;4.32;3.40;;;20.10;55.90;;;;;;5113611;28;20027;-75
2023/06/15 01:03:19;;;;;;;5.72;3.60;;;20.10;56.10;;;;;;5112803;28;20021;-75
2023/06/15 01:05:47;;;;;;;4.38;3.65;;;20.00;56.00;;;;;;5112578;28;20042;-75
2023/06/15 01:08:15;;;;;;;5.43;4.13;;;20.00;55.90;;;;;;5112591;28;20057;-75
2023/06/15 01:10:43;;;;;;;4.32;3.67;;;20.00;56.00;;;;;;5112699;28;20033;-75
2023/06/15 01:13:13;;;;;;;4.70;3.50;;;19.80;56.20;;;;;;5113662;28;20091;-74
2023/06/15 01:15:41;;;;;;;6.35;3.63;;;19.70;56.70;;;;;;5112484;28;20095;-75
2023/06/15 01:18:08;;;;;;;5.00;3.42;;;19.70;57.10;;;;;;5112429;28;20094;-75
2023/06/15 01:20:39;;;;;;;3.78;3.30;;;19.70;56.70;;;;;;5112400;28;20016;-76
2023/06/15 01:23:07;;;;;;;5.75;3.40;;;19.70;56.90;;;;;;5113454;28;20107;-75
2023/06/15 01:25:53;;;;;;;4.20;3.40;;;19.60;57.10;;;;;;5112620;28;20020;-74
2023/06/15 01:28:20;;;;;;;4.28;3.30;;;19.60;57.20;;;;;;5112474;28;20023;-75
2023/06/15 01:30:52;;;;;;;7.68;4.00;;;19.70;57.20;;;;;;5113300;28;20544;-75
2023/06/15 01:33:19;;;;;;;5.43;4.10;;;19.60;57.20;;;;;;5113355;28;20035;-75
2023/06/15 01:35:45;;;;;;;5.13;3.70;;;19.70;57.10;;;;;;5112281;28;20092;-75
2023/06/15 01:38:11;;;;;;;4.68;3.55;;;19.70;57.30;;;;;;5112191;28;20063;-75
2023/06/15 01:40:40;;;;;;;5.50;3.60;;;19.60;57.30;;;;;;5116795;28;20083;-75
2023/06/15 01:43:11;;;;;;;5.45;3.60;;;19.40;57.70;;;;;;5116195;28;20020;-74
2023/06/15 01:45:39;;;;;;;4.63;4.03;;;19.30;58.10;;;;;;5116156;28;20040;-75
2023/06/15 01:48:06;;;;;;;5.32;3.80;;;19.30;57.90;;;;;;5117116;28;20031;-75
2023/06/15 01:50:33;;;;;;;5.25;3.83;;;19.40;57.90;;;;;;5117068;28;20020;-74
2023/06/15 01:52:59;;;;;;;5.50;3.60;;;19.30;58.10;;;;;;5117003;28;20041;-74
2023/06/15 01:55:25;;;;;;;6.53;3.70;;;19.40;57.90;;;;;;5116945;28;20029;-75
2023/06/15 01:57:53;;;;;;;5.20;3.75;;;19.40;57.80;;;;;;5116836;28;20012;-74
2023/06/15 02:00:21;;;;;;;4.97;3.97;;;19.40;58.00;;;;;;5116838;28;20020;-75
2023/06/15 02:02:47;;;;;;;4.78;3.97;;;19.40;58.10;;;;;;5116942;28;20016;-75
2023/06/15 02:05:13;;;;;;;6.22;3.88;;;19.20;58.30;;;;;;5116780;28;20040;-75
2023/06/15 02:07:39;;;;;;;6.55;3.88;;;19.20;58.60;;;;;;5116751;28;20033;-75
2023/06/15 02:10:05;;;;;;;5.25;4.20;;;19.20;59.00;;;;;;5115697;28;20024;-75
2023/06/15 02:12:31;;;;;;;4.72;3.90;;;19.20;59.10;;;;;;5116617;28;20103;-75
2023/06/15 02:14:57;;;;;;;5.32;3.88;;;19.10;59.20;;;;;;5116600;28;20036;-74
2023/06/15 02:17:30;;;;;;;5.88;4.05;;;19.10;59.50;;;;;;5116498;28;20051;-75
2023/06/15 02:19:57;;;;;;;6.00;4.68;;;19.10;59.20;;;;;;5116691;28;20031;-75
2023/06/15 02:22:23;;;;;;;5.93;3.92;;;19.20;59.30;;;;;;5115545;28;20081;-75
2023/06/15 02:24:49;;;;;;;5.57;4.50;;;19.20;58.90;;;;;;5116404;28;20020;-75
2023/06/15 02:27:15;;;;;;;5.53;4.25;;;19.30;58.90;;;;;;5116372;28;20024;-75
2023/06/15 02:29:41;;;;;;;6.05;4.13;;;19.30;59.00;;;;;;5116326;28;20036;-75
2023/06/15 02:32:07;;;;;;;5.43;4.30;;;19.30;59.10;;;;;;5116241;28;20035;-75
2023/06/15 02:34:33;;;;;;;4.88;4.35;;;19.20;59.00;;;;;;5115178;28;20031;-75
2023/06/15 02:36:59;;;;;;;9.18;4.80;;;19.20;59.10;;;;;;5115068;28;20029;-75
2023/06/15 02:39:25;;;;;;;6.78;4.70;;;19.20;59.40;;;;;;5100550;28;20040;-75
2023/06/15 02:41:50;;;;;;;7.35;4.68;;;19.20;59.50;;;;;;5095456;28;20024;-74
2023/06/15 02:44:16;;;;;;;5.60;5.00;;;19.10;59.70;;;;;;5095688;28;20063;-74
2023/06/15 02:46:45;;;;;;;7.10;4.53;;;19.00;59.90;;;;;;5078122;28;20025;-74
2023/06/15 02:49:10;;;;;;;5.75;4.60;;;18.90;60.10;;;;;;5077847;28;20025;-73
2023/06/15 02:51:37;;;;;;;5.70;4.78;;;18.80;60.50;;;;;;5077600;28;20109;-73
2023/06/15 02:54:04;;;;;;;7.50;4.32;;;18.60;61.10;;;;;;5095491;28;20023;-74
2023/06/15 02:56:30;;;;;;;5.93;4.65;;;18.60;61.40;;;;;;5078090;28;20032;-73
2023/06/15 02:58:55;;;;;;;5.53;4.30;;;18.60;61.60;;;;;;5077674;28;20028;-73
2023/06/15 03:01:23;;;;;;;7.72;4.72;;;18.60;62.00;;;;;;5095471;28;20032;-73
2023/06/15 03:03:49;;;;;;;5.97;4.70;;;18.70;62.20;;;;;;5077580;28;20422;-73
2023/06/15 03:06:15;;;;;;;7.30;5.05;;;18.50;61.80;;;;;;5095267;28;20062;-73
2023/06/15 03:08:42;;;;;;;9.82;4.60;;;18.40;62.10;;;;;;5095193;28;20029;-73
2023/06/15 03:11:08;;;;;;;7.53;4.70;;;18.40;62.20;;;;;;5077363;28;20055;-73
2023/06/15 03:13:35;;;;;;;5.78;4.78;;;18.40;62.10;;;;;;5094987;28;20024;-73
2023/06/15 03:16:01;;;;;;;11.02;5.50;;;18.40;62.30;;;;;;5060704;28;20036;-73
2023/06/15 03:18:30;;;;;;;7.00;4.80;;;18.50;62.20;;;;;;5095011;28;20028;-73
2023/06/15 03:20:57;;;;;;;6.32;4.93;;;18.40;62.30;;;;;;5077273;28;20546;-73
2023/06/15 03:23:23;;;;;;;8.43;4.97;;;18.40;62.40;;;;;;5094944;28;20027;-73
2023/06/15 03:25:52;;;;;;;16.23;4.80;;;18.30;62.40;;;;;;5077342;28;20028;-73
2023/06/15 03:28:27;;;;;;;7.80;4.78;;;18.30;62.70;;;;;;5094799;28;20025;-73
2023/06/15 03:30:56;;;;;;;6.13;4.57;;;18.30;62.90;;;;;;5094836;28;20049;-73
2023/06/15 03:33:22;;;;;;;5.47;4.53;;;18.40;62.60;;;;;;5077504;28;20028;-73
2023/06/15 03:35:49;;;;;;;8.38;4.95;;;18.50;62.40;;;;;;5094649;28;20033;-73
2023/06/15 03:38:18;;;;;;;10.07;5.22;;;18.50;62.40;;;;;;5105318;28;20048;-73
2023/06/15 03:40:43;;;;;;;9.60;5.07;;;18.40;62.50;;;;;;5117407;28;20051;-74
2023/06/15 03:43:13;;;;;;;5.95;5.28;;;18.40;62.50;;;;;;5135251;28;20031;-73
2023/06/15 03:45:39;;;;;;;5.55;4.60;;;18.50;62.50;;;;;;5135344;28;20011;-73
2023/06/15 03:48:06;;;;;;;6.68;4.72;;;18.50;62.50;;;;;;5116999;28;20011;-73
2023/06/15 03:50:31;;;;;;;5.93;4.53;;;18.50;62.60;;;;;;5135152;28;20044;-73
2023/06/15 03:52:57;;;;;;;6.72;5.45;;;18.50;62.60;;;;;;5100257;28;20031;-73
2023/06/15 03:55:23;;;;;;;5.43;4.78;;;18.40;62.80;;;;;;5135080;28;20028;-73
2023/06/15 03:57:48;;;;;;;7.32;5.22;;;18.40;63.10;;;;;;5134918;28;20035;-73
2023/06/15 04:00:14;;;;;;;7.80;5.13;;;18.30;63.30;;;;;;5134926;28;20028;-73
2023/06/15 04:02:40;;;;;;;8.05;5.70;;;18.30;63.20;;;;;;5134352;28;20026;-73
2023/06/15 04:05:06;;;;;;;7.00;4.78;;;18.40;63.30;;;;;;5116869;28;20485;-73
2023/06/15 04:07:32;;;;;;;6.80;5.15;;;18.40;63.40;;;;;;5117132;28;20072;-73
2023/06/15 04:09:59;;;;;;;7.53;5.70;;;18.30;63.60;;;;;;5116879;28;20020;-73
2023/06/15 04:12:25;;;;;;;7.03;5.07;;;18.30;63.70;;;;;;5116635;28;20079;-73
2023/06/15 04:14:50;;;;;;;6.70;5.18;;;18.30;63.80;;;;;;5134672;28;20035;-73
2023/06/15 04:17:16;;;;;;;9.27;5.65;;;18.30;63.80;;;;;;5116696;28;20118;-73
2023/06/15 04:19:41;;;;;;;8.70;5.72;;;18.30;64.10;;;;;;5116776;28;20026;-73
2023/06/15 04:22:07;;;;;;;11.45;6.45;;;18.40;64.50;;;;;;5134526;28;20059;-73
2023/06/15 04:24:33;;;;;;;11.70;6.10;;;18.40;64.40;;;;;;5099540;28;20020;-73
2023/06/15 04:26:59;;;;;;;8.52;6.13;;;18.40;64.40;;;;;;5134477;28;20043;-73
2023/06/15 04:29:29;;;;;;;9.80;6.05;;;18.40;64.60;;;;;;5116451;28;20062;-73
2023/06/15 04:31:57;;;;;;;7.97;5.82;;;18.40;65.00;;;;;;5134405;28;20027;-73
2023/06/15 04:34:26;;;;;;;10.93;6.20;;;18.40;65.00;;;;;;5134269;28;20019;-73
2023/06/15 04:36:52;;;;;;;9.35;6.35;;;18.40;65.20;;;;;;5134224;28;20035;-73
2023/06/15 04:39:22;;;;;;;10.82;6.07;;;18.50;65.20;;;;;;5116162;28;20043;-73
2023/06/15 04:41:48;;;;;;;8.23;5.93;;;18.50;65.20;;;;;;5116228;28;20024;-73
2023/06/15 04:44:14;;;;;;;7.80;6.15;;;18.50;65.40;;;;;;5116338;28;20066;-73
2023/06/15 04:46:41;;;;;;;10.63;7.38;;;18.60;65.60;;;;;;5134160;28;20051;-73
2023/06/15 04:49:08;;;;;;;10.27;6.35;;;18.60;66.00;;;;;;5134100;28;20050;-73
2023/06/15 04:51:34;;;;;;;9.02;7.07;;;18.70;66.50;;;;;;5134111;28;20012;-73
2023/06/15 04:54:00;;;;;;;9.38;6.85;;;18.70;67.70;;;;;;5116249;28;20023;-73
2023/06/15 04:56:26;;;;;;;9.25;6.85;;;18.70;67.10;;;;;;5115961;28;20035;-73
2023/06/15 04:58:52;;;;;;;11.07;7.93;;;18.70;67.50;;;;;;5133918;28;20032;-73
2023/06/15 05:01:17;;;;;;;10.23;8.00;;;18.70;68.10;;;;;;5133980;28;20038;-73
2023/06/15 05:03:43;;;;;;;8.88;6.63;;;18.80;68.50;;;;;;5133952;28;20027;-73
2023/06/15 05:06:09;;;;;;;9.50;7.18;;;18.80;68.20;;;;;;5133911;28;20102;-73
2023/06/15 05:08:35;;;;;;;12.88;7.20;;;18.80;67.70;;;;;;5133892;28;20032;-73
2023/06/15 05:11:01;;;;;;;12.60;7.45;;;18.90;67.60;;;;;;5115908;28;20023;-73
2023/06/15 05:13:29;;;;;;;9.38;6.90;;;18.90;67.70;;;;;;5134011;28;20034;-73
2023/06/15 05:15:54;;;;;;;10.65;7.35;;;19.00;67.50;;;;;;5137969;28;20028;-73
2023/06/15 05:18:20;;;;;;;8.60;6.90;;;19.00;67.50;;;;;;5138193;28;20114;-73
2023/06/15 05:20:47;;;;;;;10.25;7.13;;;19.10;67.70;;;;;;5138078;28;20034;-73
2023/06/15 05:23:13;;;;;;;11.02;7.43;;;19.10;68.10;;;;;;5120152;28;20031;-73
2023/06/15 05:25:38;;;;;;;9.93;7.07;;;19.10;68.00;;;;;;5138112;28;20023;-73
2023/06/15 05:28:04;;;;;;;13.05;7.28;;;19.20;67.90;;;;;;5137954;28;20081;-73
2023/06/15 05:30:30;;;;;;;8.30;6.93;;;19.30;67.90;;;;;;5137875;28;20466;-72
2023/06/15 05:32:56;;;;;;;10.88;7.57;;;19.30;67.80;;;;;;5137817;28;20038;-73
2023/06/15 05:35:22;;;;;;;9.68;7.15;;;19.30;67.80;;;;;;5119736;28;20020;-73
2023/06/15 05:37:48;;;;;;;9.45;7.50;;;19.40;68.10;;;;;;5137634;28;20027;-73
2023/06/15 05:40:13;;;;;;;11.30;7.45;;;19.40;68.00;;;;;;5137559;28;20071;-73
2023/06/15 05:42:39;;;;;;;8.98;6.80;;;19.40;68.30;;;;;;5137641;28;20075;-73
2023/06/15 05:45:05;;;;;;;10.60;7.40;;;19.40;68.40;;;;;;5102759;28;20024;-73
2023/06/15 05:47:32;;;;;;;10.07;7.78;;;19.50;68.60;;;;;;5137524;28;20036;-73
2023/06/15 05:49:57;;;;;;;10.00;6.97;;;19.60;68.80;;;;;;5137516;28;20023;-73
2023/06/15 05:52:23;;;;;;;10.43;8.02;;;19.60;68.60;;;;;;5137481;28;20031;-73
2023/06/15 05:54:49;;;;;;;10.43;7.28;;;19.70;68.60;;;;;;5137401;28;20032;-73
2023/06/15 05:57:15;;;;;;;10.45;6.78;;;19.70;68.20;;;;;;5137270;28;20039;-73
2023/06/15 05:59:41;;;;;;;9.20;7.25;;;19.80;68.00;;;;;;5137336;28;20020;-73
2023/06/15 06:02:07;;;;;;;11.45;6.90;;;19.80;67.90;;;;;;5119217;28;20028;-73
2023/06/15 06:04:34;;;;;;;8.63;6.90;;;19.80;67.90;;;;;;5119228;28;20083;-73
2023/06/15 06:07:00;;;;;;;8.10;6.75;;;19.90;68.00;;;;;;5137170;28;20019;-73
2023/06/15 06:09:26;;;;;;;10.32;6.82;;;20.00;67.80;;;;;;5137139;28;20024;-73
2023/06/15 06:11:52;;;;;;;12.50;7.03;;;20.00;67.60;;;;;;5137080;28;20016;-73
2023/06/15 06:14:17;;;;;;;9.18;7.18;;;20.10;67.50;;;;;;5136969;28;20079;-73
2023/06/15 06:16:43;;;;;;;10.88;7.65;;;20.10;67.00;;;;;;5137035;28;20493;-72
2023/06/15 06:19:09;;;;;;;9.35;7.35;;;20.20;67.30;;;;;;5118932;28;20026;-73
2023/06/15 06:21:34;;;;;;;11.27;7.38;;;20.20;67.20;;;;;;5136860;28;20024;-73
2023/06/15 06:24:00;;;;;;;11.50;6.82;;;20.30;67.10;;;;;;5136878;28;20034;-73
2023/06/15 06:26:26;;;;;;;11.75;7.53;;;20.30;67.10;;;;;;5118099;28;20024;-73
2023/06/15 06:28:52;;;;;;;9.70;6.88;;;20.40;66.80;;;;;;5136740;28;20038;-72
2023/06/15 06:31:18;;;;;;;10.80;6.63;;;20.50;66.40;;;;;;5136709;28;20028;-73
2023/06/15 06:33:43;;;;;;;11.27;6.80;;;20.50;66.20;;;;;;5136600;28;20038;-73
2023/06/15 06:36:09;;;;;;;10.80;6.35;;;20.60;66.20;;;;;;5118643;28;20035;-73
2023/06/15 06:38:36;;;;;;;10.45;7.03;;;20.70;65.90;;;;;;5136361;28;20055;-73
2023/06/15 06:41:01;;;;;;;11.27;7.25;;;20.80;65.30;;;;;;5136526;28;20498;-73
2023/06/15 06:43:27;;;;;;;8.93;6.80;;;20.80;64.90;;;;;;5118537;28;20057;-73
2023/06/15 06:45:53;;;;;;;10.65;6.72;;;20.80;64.60;;;;;;5136480;28;20027;-73
2023/06/15 06:48:18;;;;;;;9.55;6.70;;;20.90;64.60;;;;;;5118548;28;20035;-73
2023/06/15 06:50:44;;;;;;;9.75;6.55;;;20.90;64.50;;;;;;5136362;28;20024;-73
2023/06/15 06:53:11;;;;;;;9.50;6.28;;;21.00;64.70;;;;;;5136293;28;20019;-73
2023/06/15 06:55:37;;;;;;;8.35;6.25;;;21.10;64.40;;;;;;5136251;28;20031;-74
2023/06/15 06:58:03;;;;;;;12.02;6.70;;;21.10;64.10;;;;;;5136149;28;20028;-73
2023/06/15 07:00:29;;;;;;;11.02;7.53;;;21.20;64.10;;;;;;5118279;28;20019;-74
2023/06/15 07:02:55;;;;;;;10.40;7.32;;;21.20;63.80;;;;;;5118174;28;20035;-74
2023/06/15 07:05:21;;;;;;;11.15;7.85;;;21.30;63.40;;;;;;5118227;28;20020;-74
2023/06/15 07:07:47;;;;;;;9.98;7.55;;;21.40;63.10;;;;;;5117949;28;20087;-74
2023/06/15 07:10:13;;;;;;;13.68;7.45;;;21.40;63.00;;;;;;5136139;28;20020;-74
2023/06/15 07:12:38;;;;;;;14.18;8.23;;;21.50;63.10;;;;;;5135954;28;20026;-74
2023/06/15 07:15:05;;;;;;;11.55;7.18;;;21.50;62.60;;;;;;5135894;28;20027;-74
2023/06/15 07:17:31;;;;;;;11.73;7.63;;;21.60;62.70;;;;;;5135702;28;20023;-74
2023/06/15 07:19:58;;;;;;;10.63;7.35;;;21.50;62.00;;;;;;5135815;28;20031;-74
2023/06/15 07:22:23;;;;;;;8.68;6.57;;;21.60;61.90;;;;;;5135796;28;20099;-73
2023/06/15 07:24:50;;;;;;;8.98;6.35;;;21.60;62.50;;;;;;5117766;28;20031;-74
2023/06/15 07:27:16;;;;;;;10.45;6.95;;;21.70;62.70;;;;;;5135542;28;20043;-74
2023/06/15 07:29:41;;;;;;;8.18;6.45;;;21.80;62.40;;;;;;5117567;28;20028;-73
2023/06/15 07:32:07;;;;;;;10.20;7.65;;;21.90;62.20;;;;;;5135561;28;20035;-74
2023/06/15 07:34:33;;;;;;;12.05;7.53;;;22.00;61.50;;;;;;5117531;28;20087;-74
2023/06/15 07:36:59;;;;;;;9.63;7.30;;;22.00;61.30;;;;;;5134631;28;20032;-73
2023/06/15 07:39:24;;;;;;;10.82;7.05;;;22.10;61.50;;;;;;5135307;28;20134;-74
2023/06/15 07:41:50;;;;;;;10.80;6.60;;;22.00;60.50;;;;;;5135383;28;20024;-74
2023/06/15 07:44:16;;;;;;;9.80;6.70;;;22.10;60.60;;;;;;5135344;28;20079;-73
2023/06/15 07:46:42;;;;;;;7.65;6.00;;;22.30;60.80;;;;;;5117476;28;20024;-73
2023/06/15 07:49:08;;;;;;;10.63;6.30;;;22.30;60.60;;;;;;5135186;28;20039;-74
2023/06/15 07:51:37;;;;;;;7.30;5.88;;;22.40;60.10;;;;;;5135194;28;20020;-74
2023/06/15 07:54:03;;;;;;;11.15;6.47;;;22.50;60.50;;;;;;5135272;28;20038;-73
2023/06/15 07:56:29;;;;;;;9.43;6.00;;;22.60;60.10;;;;;;5135116;28;20028;-74
2023/06/15 07:58:54;;;;;;;8.05;6.03;;;22.60;58.80;;;;;;5135008;28;20051;-74
2023/06/15 08:01:20;;;;;;;7.72;5.82;;;22.60;57.70;;;;;;5117071;28;20032;-74
2023/06/15 08:03:46;;;;;;;6.80;5.10;;;22.70;58.10;;;;;;5134942;28;20051;-74
2023/06/15 08:06:11;;;;;;;9.57;5.22;;;22.80;58.30;;;;;;5134777;28;20037;-74
2023/06/15 08:08:37;;;;;;;11.88;6.22;;;22.90;57.70;;;;;;5116789;28;20054;-74
2023/06/15 08:11:05;;;;;;;10.35;5.70;;;23.00;56.70;;;;;;5134745;28;20477;-73
2023/06/15 08:13:31;;;;;;;8.32;4.60;;;23.00;57.60;;;;;;5134766;28;20027;-75
2023/06/15 08:15:57;;;;;;;9.77;6.47;;;23.10;56.40;;;;;;5134679;28;20038;-74
2023/06/15 08:18:23;;;;;;;10.13;5.00;;;23.10;56.40;;;;;;5116875;28;20047;-74
2023/06/15 08:20:49;;;;;;;11.57;4.90;;;23.10;55.80;;;;;;5134569;28;20039;-74
2023/06/15 08:23:15;;;;;;;7.25;4.38;;;23.10;53.70;;;;;;5134594;28;20050;-74
2023/06/15 08:25:41;;;;;;;6.45;4.30;;;23.20;53.20;;;;;;5134549;28;20031;-74
2023/06/15 08:28:07;;;;;;;7.22;4.07;;;23.30;53.80;;;;;;5134524;28;20024;-74
2023/06/15 08:30:32;;;;;;;7.07;3.95;;;23.40;55.10;;;;;;5134310;28;20023;-73
2023/06/15 08:32:58;;;;;;;7.05;4.20;;;23.50;54.80;;;;;;5134362;28;20028;-74
2023/06/15 08:35:24;;;;;;;8.05;3.95;;;23.60;54.40;;;;;;5134331;28;20087;-74
2023/06/15 08:37:50;;;;;;;4.80;3.80;;;23.70;50.90;;;;;;5134272;28;20069;-74
2023/06/15 08:40:15;;;;;;;10.43;4.35;;;23.70;49.30;;;;;;5134202;28;20060;-74
2023/06/15 08:42:42;;;;;;;6.32;4.03;;;23.70;50.50;;;;;;5134269;28;20027;-74
2023/06/15 08:45:08;;;;;;;6.80;4.20;;;23.60;49.70;;;;;;5134221;28;20048;-74
2023/06/15 08:47:34;;;;;;;9.02;4.70;;;23.60;50.20;;;;;;5134064;28;20053;-74
2023/06/15 08:50:03;;;;;;;6.32;4.13;;;23.60;49.50;;;;;;5116119;28;20509;-74
2023/06/15 08:52:37;;;;;;;6.55;3.88;;;23.70;50.20;;;;;;5134137;28;20020;-74
2023/06/15 08:55:04;;;;;;;6.57;3.90;;;23.70;49.00;;;;;;5134106;28;20028;-74
2023/06/15 08:57:32;;;;;;;6.00;3.95;;;23.80;48.30;;;;;;5134126;28;20023;-74
2023/06/15 08:59:58;;;;;;;9.85;3.30;;;23.80;47.70;;;;;;5134038;28;20510;-74
2023/06/15 09:02:25;;;;;;;4.38;3.25;;;23.80;47.70;;;;;;5134003;28;20047;-74
2023/06/15 09:04:52;;;;;;;8.15;3.70;;;23.90;48.60;;;;;;5133976;28;20020;-74
2023/06/15 09:07:21;;;;;;;5.40;3.33;;;24.10;48.50;;;;;;5116028;28;20035;-75
2023/06/15 09:10:08;;;;;;;4.18;3.28;;;24.20;48.10;;;;;;5133964;28;20028;-74
2023/06/15 09:12:34;;;;;;;5.63;3.22;;;24.30;49.20;;;;;;5133923;28;20025;-74
2023/06/15 09:15:00;;;;;;;8.35;3.83;;;24.50;45.30;;;;;;5133886;28;20053;-73
2023/06/15 09:17:29;;;;;;;7.18;3.40;;;24.50;44.30;;;;;;5133841;28;20024;-75
2023/06/15 09:19:55;;;;;;;4.78;3.40;;;24.50;44.60;;;;;;5133895;28;20024;-75
2023/06/15 09:22:21;;;;;;;7.63;3.70;;;24.60;44.70;;;;;;5133801;28;20020;-74
2023/06/15 09:24:47;;;;;;;6.50;3.15;;;24.70;44.40;;;;;;5133745;28;20034;-74
2023/06/15 09:27:15;;;;;;;4.22;3.20;;;24.80;45.00;;;;;;5133790;28;20024;-74
2023/06/15 09:30:03;;;;;;;5.65;3.00;;;24.90;45.80;;;;;;5133601;28;20020;-73
2023/06/15 09:32:30;;;;;;;6.38;3.22;;;25.10;43.90;;;;;;5133831;28;20031;-74
2023/06/15 09:34:59;;;;;;;7.30;3.28;;;25.10;44.50;;;;;;5115792;28;20071;-74
2023/06/15 09:37:27;;;;;;;5.30;3.28;;;25.20;44.90;;;;;;5133654;28;20024;-75
2023/06/15 09:39:53;;;;;;;5.13;3.10;;;25.10;43.00;;;;;;5133452;28;20539;-74
2023/06/15 09:42:27;;;;;;;5.05;3.47;;;25.20;43.40;;;;;;5115921;28;20071;-74
2023/06/15 09:45:06;;;;;;;5.70;3.20;;;25.30;43.50;;;;;;5133521;28;20011;-74
2023/06/15 09:47:31;;;;;;;4.68;2.90;;;25.40;43.90;;;;;;5133648;28;20112;-74
2023/06/15 09:49:58;;;;;;;5.30;3.00;;;25.50;42.40;;;;;;5133558;28;20039;-74
2023/06/15 09:52:24;;;;;;;5.32;3.40;;;25.60;41.70;;;;;;5133565;28;20035;-74
2023/06/15 09:54:54;;;;;;;5.03;3.08;;;25.70;42.70;;;;;;5133604;28;20411;-73
2023/06/15 09:57:20;;;;;;;6.15;3.60;;;25.60;41.10;;;;;;5115730;28;20494;-74
2023/06/15 09:59:46;;;;;;;5.22;4.03;;;25.60;41.70;;;;;;5133668;28;20023;-73
2023/06/15 10:02:15;;;;;;;4.05;3.20;;;25.40;40.70;;;;;;5137329;28;20027;-74
2023/06/15 10:04:45;;;;;;;5.55;3.40;;;25.30;41.80;;;;;;5137202;28;20048;-74
2023/06/15 10:07:13;;;;;;;5.30;3.80;;;25.20;42.00;;;;;;5137344;28;20020;-74
2023/06/15 10:09:49;;;;;;;6.22;3.83;;;25.30;44.20;;;;;;5137090;28;20030;-74
2023/06/15 10:12:16;;;;;;;5.65;3.67;;;25.50;44.70;;;;;;5137208;28;20027;-74
2023/06/15 10:14:55;;;;;;;5.90;3.45;;;25.60;44.60;;;;;;5137087;28;20035;-74
2023/06/15 10:17:32;;;;;;;4.78;2.97;;;25.80;43.10;;;;;;5137040;28;20030;-73
2023/06/15 10:20:07;;;;;;;6.63;3.20;;;25.80;42.20;;;;;;5136925;28;20023;-75
2023/06/15 10:22:34;;;;;;;6.95;3.60;;;25.80;42.30;;;;;;5137082;28;20026;-74
2023/06/15 10:25:01;;;;;;;5.50;3.45;;;25.70;42.50;;;;;;5119010;28;20031;-74
2023/06/15 10:27:26;;;;;;;5.80;3.50;;;25.60;42.20;;;;;;5136888;28;20062;-74
2023/06/15 10:30:11;;;;;;;5.07;3.33;;;25.50;41.40;;;;;;5118791;28;20058;-75
2023/06/15 10:32:59;;;;;;;8.20;3.63;;;25.30;40.50;;;;;;5136744;28;20107;-74
2023/06/15 10:35:35;;;;;;;5.18;3.13;;;25.30;42.70;;;;;;5136566;28;20024;-74
2023/06/15 10:38:24;;;;;;;6.47;3.45;;;25.50;40.40;;;;;;5136413;28;20048;-74
2023/06/15 10:40:51;;;;;;;7.53;3.63;;;25.50;38.10;;;;;;5118492;28;20114;-75
2023/06/15 10:43:18;;;;;;;4.60;3.55;;;25.50;40.10;;;;;;5118685;28;20115;-76
2023/06/15 10:45:44;;;;;;;9.07;4.22;;;25.70;40.80;;;;;;5136525;28;20015;-76
2023/06/15 10:48:24;;;;;;;5.68;3.90;;;25.80;40.10;;;;;;5136423;28;20020;-76
2023/06/15 10:50:53;;;;;;;5.78;3.53;;;25.70;40.20;;;;;;5118435;28;20031;-76
2023/06/15 10:53:33;;;;;;;4.47;3.80;;;25.90;41.40;;;;;;5118707;28;20032;-76
2023/06/15 10:55:59;;;;;;;4.00;3.10;;;26.10;41.60;;;;;;5136343;28;20051;-76
2023/06/15 10:58:27;;;;;;;5.50;3.70;;;26.30;40.80;;;;;;5118088;28;20020;-76
2023/06/15 11:01:05;;;;;;;5.60;3.55;;;26.50;40.90;;;;;;5136213;28;20019;-76
2023/06/15 11:03:32;;;;;;;6.57;3.47;;;26.70;39.50;;;;;;5136145;28;20027;-76
2023/06/15 11:06:13;;;;;;;5.22;3.40;;;26.70;37.90;;;;;;5136131;28;20027;-76
2023/06/15 11:08:53;;;;;;;6.27;3.53;;;26.70;37.40;;;;;;5118005;28;20026;-75
2023/06/15 11:11:33;;;;;;;6.00;3.55;;;26.70;35.40;;;;;;5136074;28;20058;-76
2023/06/15 11:14:07;;;;;;;4.90;3.20;;;26.30;35.30;;;;;;5135848;28;20023;-76
2023/06/15 11:16:34;;;;;;;5.05;3.05;;;26.20;36.90;;;;;;5117823;28;20090;-76
2023/06/15 11:19:13;;;;;;;7.13;3.58;;;26.10;36.90;;;;;;5135824;28;20023;-75
2023/06/15 11:21:40;;;;;;;5.43;3.20;;;26.20;38.30;;;;;;5117746;28;20024;-75
2023/06/15 11:24:07;;;;;;;6.80;3.50;;;26.30;38.50;;;;;;5117693;28;20047;-76
2023/06/15 11:26:34;;;;;;;5.47;3.38;;;26.50;39.20;;;;;;5135657;28;20019;-76
2023/06/15 11:29:03;;;;;;;6.50;3.30;;;26.70;35.50;;;;;;5135679;28;20083;-76
2023/06/15 11:31:31;;;;;;;3.85;3.03;;;26.40;34.00;;;;;;5117514;28;20030;-76
2023/06/15 11:33:57;;;;;;;6.43;3.15;;;26.40;34.70;;;;;;5135515;28;20023;-76
2023/06/15 11:36:23;;;;;;;5.55;3.20;;;26.50;35.50;;;;;;5100709;28;20020;-76
2023/06/15 11:38:49;;;;;;;5.88;3.38;;;26.60;36.20;;;;;;5135240;28;20050;-76
2023/06/15 11:41:15;;;;;;;3.92;3.30;;;26.70;36.80;;;;;;5135522;28;20028;-76
2023/06/15 11:43:42;;;;;;;4.88;3.45;;;26.70;36.80;;;;;;5135326;28;20024;-76
2023/06/15 11:46:12;;;;;;;5.82;3.38;;;26.80;36.60;;;;;;5117263;28;20020;-77
2023/06/15 11:48:39;;;;;;;6.38;3.53;;;26.90;36.60;;;;;;5117367;28;20100;-76
2023/06/15 11:51:09;;;;;;;5.20;3.05;;;27.00;37.00;;;;;;5135262;28;20386;-76
2023/06/15 11:53:39;;;;;;;7.30;3.45;;;27.20;35.80;;;;;;5117130;28;20485;-76
2023/06/15 11:56:15;;;;;;;5.25;3.38;;;27.30;35.80;;;;;;5135184;28;20047;-76
2023/06/15 11:58:42;;;;;;;6.80;3.58;;;27.50;37.10;;;;;;5134851;28;20049;-76
2023/06/15 12:01:08;;;;;;;5.82;3.58;;;27.60;36.00;;;;;;5117061;28;20020;-76
2023/06/15 12:03:37;;;;;;;6.20;3.65;;;27.60;36.40;;;;;;5134906;28;20020;-76
2023/06/15 12:06:03;;;;;;;6.55;3.72;;;27.70;37.50;;;;;;5134953;28;20039;-76
2023/06/15 12:08:31;;;;;;;5.63;3.58;;;27.60;36.90;;;;;;5116889;28;20093;-76
2023/06/15 12:10:57;;;;;;;3.80;3.40;;;27.50;37.10;;;;;;5134778;28;20111;-76
2023/06/15 12:13:23;;;;;;;6.10;3.60;;;27.40;37.20;;;;;;5134744;28;20027;-77
2023/06/15 12:15:50;;;;;;;8.30;4.65;;;27.20;37.70;;;;;;5116867;28;20034;-76
2023/06/15 12:18:17;;;;;;;4.63;3.60;;;27.20;38.30;;;;;;5134758;28;20011;-77
2023/06/15 12:20:45;;;;;;;5.72;3.17;;;27.10;37.00;;;;;;5099804;28;20053;-77
2023/06/15 12:23:10;;;;;;;4.32;2.97;;;27.10;35.80;;;;;;5134198;28;20435;-76
2023/06/15 12:25:44;;;;;;;4.90;3.08;;;27.00;35.40;;;;;;5134447;28;20019;-77
2023/06/15 12:28:18;;;;;;;5.15;3.03;;;27.00;35.80;;;;;;5134515;28;20019;-76
2023/06/15 12:30:47;;;;;;;5.90;3.10;;;27.20;35.50;;;;;;5116452;28;20023;-77
2023/06/15 12:33:38;;;;;;;7.40;3.50;;;27.30;35.90;;;;;;5116307;28;20027;-77
2023/06/15 12:36:12;;;;;;;3.60;2.90;;;27.50;33.90;;;;;;5134461;28;20032;-77
2023/06/15 12:38:38;;;;;;;4.40;3.35;;;27.60;35.50;;;;;;5134239;28;20031;-77
2023/06/15 12:41:14;;;;;;;4.78;3.05;;;27.60;35.70;;;;;;5116344;28;20024;-76
2023/06/15 12:43:41;;;;;;;4.57;3.03;;;27.60;35.90;;;;;;5134499;28;20026;-76
2023/06/15 12:46:07;;;;;;;4.85;3.33;;;27.50;36.30;;;;;;5134204;28;20027;-76
2023/06/15 12:48:33;;;;;;;4.53;3.00;;;27.40;36.10;;;;;;5116203;28;20024;-76